Terminal Aerodrome Forecast
Issued by NWS

Home | Current Version | Previous Version | Text Only | Print | Product List | Glossary On
Versions: 1 2 3 4 5 6 7 8 9 10 11 12 13 14 15 16 17 18
000
FTUS43 KILX 230101 AAA
TAFDEC
TAF AMD
KDEC 230101Z 2301/2324 16010KT P6SM VCSH BKN006 OVC010
     FM230200 18010KT P6SM OVC015
     FM231000 23009KT 5SM SHRA VCTS SCT025CB BKN035
     FM231300 26009KT P6SM BKN015
     FM231600 30008KT P6SM BKN025=

USA.gov is the U.S. government's official web portal to all federal, state and local government web resources and services.